Time;durP1;ratioP1;P1;durP2;ratioP2;P2;SDS_P1;SDS_P2;PMS_P1;PMS_P2;Temp;Humidity;BMP_temperature;BMP_pressure;BME280_temperature;BME280_humidity;BME280_pressure;Samples;Min_cycle;Max_cycle;Signal;HPM_P1;HPM_P2
2023/12/23 00:02:17;;;;;;;;;0.00;0.00;;;;;20.52;47.66;101809.88;4936945;28;45383;-74
2023/12/23 00:04:43;;;;;;;;;0.00;0.00;;;;;20.73;47.92;101851.09;4937133;28;46477;-74
2023/12/23 00:07:12;;;;;;;;;0.00;0.00;;;;;20.74;47.68;101835.09;4937323;28;45546;-75
2023/12/23 00:09:37;;;;;;;;;0.00;0.00;;;;;20.66;47.90;101827.03;4937359;28;45513;-74
2023/12/23 00:12:03;;;;;;;;;0.00;0.00;;;;;20.70;48.03;101832.88;4949403;28;45462;-76
2023/12/23 00:14:28;;;;;;;;;0.00;0.00;;;;;20.74;47.90;101837.72;4936781;28;45438;-75
2023/12/23 00:16:54;;;;;;;;;0.00;0.00;;;;;20.66;47.78;101827.03;4936746;28;53849;-75
2023/12/23 00:19:19;;;;;;;;;0.00;0.00;;;;;20.72;48.02;101841.50;4937061;28;45632;-75
2023/12/23 00:21:44;;;;;;;;;2.67;0.00;;;;;20.74;48.07;101837.72;4937266;28;45426;-75
2023/12/23 00:24:09;;;;;;;;;1.00;1.00;;;;;20.70;48.18;101833.72;4936829;28;47001;-76
2023/12/23 00:26:35;;;;;;;;;0.00;0.00;;;;;20.74;48.06;101842.19;4937053;28;45393;-74
2023/12/23 00:29:00;;;;;;;;;1.00;0.00;;;;;20.74;47.89;101845.66;4936535;28;46623;-75
2023/12/23 00:31:25;;;;;;;;;1.00;0.00;;;;;20.74;47.72;101836.88;4936676;28;45455;-74
2023/12/23 00:33:51;;;;;;;;;0.00;0.00;;;;;20.75;48.07;101835.91;4936842;28;45961;-76
2023/12/23 00:36:16;;;;;;;;;0.00;0.00;;;;;20.73;48.20;101836.09;4936098;28;45473;-75
2023/12/23 00:38:42;;;;;;;;;0.00;0.00;;;;;20.74;47.83;101837.72;4945037;28;56634;-75
2023/12/23 00:41:07;;;;;;;;;1.00;0.00;;;;;20.74;47.92;101845.66;4945950;28;45466;-74
2023/12/23 00:43:33;;;;;;;;;1.00;1.00;;;;;20.75;47.81;101838.56;4943372;28;46282;-75
2023/12/23 00:45:58;;;;;;;;;0.00;0.00;;;;;20.75;48.14;101833.28;4946597;28;45262;-75
2023/12/23 00:48:23;;;;;;;;;0.67;0.00;;;;;20.74;47.84;101827.16;4936616;28;47648;-75
2023/12/23 00:50:48;;;;;;;;;0.00;0.00;;;;;20.74;47.83;101832.44;4936571;28;47434;-75
2023/12/23 00:53:14;;;;;;;;;0.00;0.00;;;;;20.76;48.27;101849.97;4936525;28;46016;-74
2023/12/23 00:55:39;;;;;;;;;2.00;0.00;;;;;20.75;47.80;101841.22;4937146;28;45343;-73
2023/12/23 00:58:04;;;;;;;;;2.33;0.00;;;;;20.75;47.87;101833.28;4937036;28;45451;-73
2023/12/23 01:00:30;;;;;;;;;1.67;0.33;;;;;20.75;47.81;101835.91;4937193;28;45303;-72
2023/12/23 01:02:55;;;;;;;;;0.00;0.00;;;;;20.76;48.06;101834.13;4936700;28;46011;-73
2023/12/23 01:05:20;;;;;;;;;0.00;0.00;;;;;20.76;48.16;101826.19;4937047;28;46006;-73
2023/12/23 01:07:46;;;;;;;;;0.00;0.00;;;;;20.77;47.80;101830.47;4937131;28;46248;-73
2023/12/23 01:10:11;;;;;;;;;0.00;0.00;;;;;20.75;47.85;101835.91;4937174;28;45363;-73
2023/12/23 01:12:36;;;;;;;;;0.00;0.00;;;;;20.75;47.91;101830.63;4938943;28;45699;-72
2023/12/23 01:15:02;;;;;;;;;0.00;0.00;;;;;20.74;48.11;101835.09;4938908;28;51285;-73
2023/12/23 01:17:28;;;;;;;;;1.00;0.00;;;;;20.72;47.81;101836.22;4940514;28;45436;-72
2023/12/23 01:19:53;;;;;;;;;0.00;0.00;;;;;20.72;47.61;101823.81;4940574;28;45376;-72
2023/12/23 01:22:18;;;;;;;;;0.00;0.00;;;;;20.72;47.85;101823.00;4940213;28;46431;-72
2023/12/23 01:24:43;;;;;;;;;1.00;1.00;;;;;20.71;48.14;101810.75;4939933;28;53253;-72
2023/12/23 01:27:09;;;;;;;;;1.00;0.00;;;;;20.62;48.06;101792.16;4939837;28;48435;-73
2023/12/23 01:29:34;;;;;;;;;0.00;0.00;;;;;20.71;47.78;101810.75;4940314;28;45428;-73
2023/12/23 01:31:59;;;;;;;;;0.00;0.00;;;;;20.70;47.89;101809.09;4940208;28;46065;-72
2023/12/23 01:34:25;;;;;;;;;0.00;0.00;;;;;20.69;47.85;101808.25;4940017;28;45398;-73
2023/12/23 01:36:50;;;;;;;;;0.00;0.00;;;;;20.70;47.48;101809.94;4940186;28;45343;-72
2023/12/23 01:39:15;;;;;;;;;0.00;0.00;;;;;20.70;47.52;101806.44;4954958;28;45443;-72
2023/12/23 01:41:40;;;;;;;;;2.00;1.67;;;;;20.64;47.40;101802.56;4939542;28;48587;-73
2023/12/23 01:44:06;;;;;;;;;0.00;0.00;;;;;20.70;47.72;101807.28;4939927;28;45484;-72
2023/12/23 01:46:32;;;;;;;;;0.00;0.00;;;;;20.69;47.51;101816.19;4940119;28;45455;-72
2023/12/23 01:48:58;;;;;;;;;0.00;0.00;;;;;20.69;47.37;101810.88;4939913;28;45350;-72
2023/12/23 01:51:24;;;;;;;;;0.00;0.00;;;;;20.67;47.29;101806.72;4939792;28;46994;-72
2023/12/23 01:53:50;;;;;;;;;0.00;0.00;;;;;20.57;47.85;101788.28;4939681;28;45359;-72
2023/12/23 01:56:16;;;;;;;;;0.00;0.00;;;;;20.62;47.45;101800.09;4954405;28;45358;-72
2023/12/23 01:58:42;;;;;;;;;0.00;0.00;;;;;20.66;47.35;101808.53;4939900;28;45307;-72
2023/12/23 02:01:07;;;;;;;;;0.00;0.00;;;;;20.53;47.83;101787.75;4939308;28;46291;-72
2023/12/23 02:03:33;;;;;;;;;0.00;0.00;;;;;20.27;47.52;101743.50;4954509;28;45484;-73
2023/12/23 02:05:59;;;;;;;;;0.00;0.00;;;;;20.66;47.41;101805.09;4939788;28;45361;-73
2023/12/23 02:08:24;;;;;;;;;0.00;0.00;;;;;20.54;47.76;101789.41;4954424;28;45432;-72
2023/12/23 02:10:59;;;;;;;;;0.00;0.00;;;;;20.65;47.60;101798.97;4939176;28;46705;-72
2023/12/23 02:13:27;;;;;;;;;0.00;0.00;;;;;20.63;47.34;101809.66;4939454;28;45320;-73
2023/12/23 02:15:53;;;;;;;;;0.33;0.00;;;;;20.65;47.49;101803.41;4939676;28;45310;-73
2023/12/23 02:18:19;;;;;;;;;1.00;0.00;;;;;20.59;47.14;101783.66;4939365;28;45627;-72
2023/12/23 02:20:51;;;;;;;;;0.00;0.00;;;;;20.55;47.65;101780.50;4939248;28;46998;-72
2023/12/23 02:23:17;;;;;;;;;0.00;0.00;;;;;20.60;47.45;101793.28;4938214;28;45355;-73
2023/12/23 02:25:48;;;;;;;;;0.00;0.00;;;;;20.63;47.07;101804.38;4939350;28;45350;-72
2023/12/23 02:28:16;;;;;;;;;0.00;0.00;;;;;20.62;47.46;101807.19;4939275;28;45453;-73
2023/12/23 02:30:44;;;;;;;;;0.00;0.00;;;;;20.59;47.53;101796.88;4937791;28;48111;-72
2023/12/23 02:33:10;;;;;;;;;1.00;0.00;;;;;20.61;47.22;101797.56;4939008;28;45446;-72
2023/12/23 02:35:36;;;;;;;;;0.00;0.00;;;;;20.63;47.42;101806.22;4939289;28;45422;-72
2023/12/23 02:38:01;;;;;;;;;0.00;0.00;;;;;20.62;47.07;101794.78;4938895;28;45373;-72
2023/12/23 02:40:27;;;;;;;;;0.00;0.00;;;;;20.58;47.60;101798.69;4939256;28;46135;-72
2023/12/23 02:42:52;;;;;;;;;0.00;0.00;;;;;20.62;47.21;101792.16;4939044;28;45391;-73
2023/12/23 02:45:17;;;;;;;;;0.33;0.00;;;;;20.62;47.09;101800.09;4938921;28;48902;-73
2023/12/23 02:47:43;;;;;;;;;0.00;0.00;;;;;20.63;47.22;101798.28;4939129;28;45318;-72
2023/12/23 02:50:08;;;;;;;;;0.00;0.00;;;;;20.63;47.28;101800.91;4938777;28;45346;-72
2023/12/23 02:52:33;;;;;;;;;0.00;0.00;;;;;20.60;47.43;101801.22;4938660;28;45444;-72
2023/12/23 02:54:59;;;;;;;;;1.00;0.00;;;;;20.62;47.19;101799.25;4938849;28;45534;-72
2023/12/23 02:57:24;;;;;;;;;0.00;0.00;;;;;20.62;47.07;101794.78;4938949;28;45408;-72
2023/12/23 02:59:49;;;;;;;;;0.00;0.00;;;;;20.59;47.25;101786.31;4938757;28;45653;-73
2023/12/23 03:02:15;;;;;;;;;0.00;0.00;;;;;20.60;46.97;101786.19;4938584;28;45493;-72
2023/12/23 03:04:40;;;;;;;;;0.00;0.00;;;;;20.62;47.12;101783.38;4939008;28;45371;-72
2023/12/23 03:07:05;;;;;;;;;0.00;0.00;;;;;20.62;46.88;101784.22;4938581;28;45554;-72
2023/12/23 03:09:31;;;;;;;;;3.00;0.00;;;;;20.61;47.12;101784.34;4938707;28;46106;-72
2023/12/23 03:11:56;;;;;;;;;0.00;0.00;;;;;20.62;46.89;101788.66;4938761;28;45380;-73
2023/12/23 03:14:21;;;;;;;;;0.00;0.00;;;;;20.62;47.17;101780.72;4938115;28;54727;-72
2023/12/23 03:16:47;;;;;;;;;0.00;0.00;;;;;20.62;47.10;101778.09;4938366;28;48916;-72
2023/12/23 03:19:12;;;;;;;;;3.00;0.00;;;;;20.61;47.06;101769.31;4938616;28;45406;-73
2023/12/23 03:21:45;;;;;;;;;0.00;0.00;;;;;20.61;46.98;101765.84;4938140;28;45369;-73
2023/12/23 03:24:11;;;;;;;;;0.00;0.00;;;;;20.62;47.09;101759.59;4938543;28;45405;-73
2023/12/23 03:26:37;;;;;;;;;1.00;0.00;;;;;20.60;47.31;101746.53;4938360;28;45299;-73
2023/12/23 03:29:03;;;;;;;;;0.67;0.67;;;;;20.62;47.25;101746.38;4938174;28;46438;-72
2023/12/23 03:31:29;;;;;;;;;0.00;0.00;;;;;20.63;47.26;101738.28;4938237;28;45423;-73
2023/12/23 03:33:54;;;;;;;;;2.00;1.00;;;;;20.62;47.07;101755.13;4953053;28;45434;-73
2023/12/23 03:36:19;;;;;;;;;3.00;0.00;;;;;20.60;47.16;101735.09;4937917;28;46280;-73
2023/12/23 03:38:44;;;;;;;;;0.00;0.00;;;;;20.57;47.10;101741.53;4952732;28;54610;-73
2023/12/23 03:41:10;;;;;;;;;1.00;0.00;;;;;20.60;47.05;101741.22;4937927;28;53721;-73
2023/12/23 03:43:35;;;;;;;;;0.00;0.00;;;;;20.62;46.96;101752.50;4938572;28;45384;-73
2023/12/23 03:46:01;;;;;;;;;0.00;0.00;;;;;20.61;47.27;101750.81;4938180;28;48624;-73
2023/12/23 03:48:26;;;;;;;;;0.00;0.00;;;;;20.58;47.18;101739.72;4938048;28;46144;-72
2023/12/23 03:50:51;;;;;;;;;0.00;0.00;;;;;20.63;47.16;101746.19;4938138;28;45404;-73
2023/12/23 03:53:17;;;;;;;;;0.00;0.00;;;;;20.63;47.02;101742.75;4938340;28;45424;-72
2023/12/23 03:55:42;;;;;;;;;0.00;0.00;;;;;20.62;47.12;101741.06;4938149;28;45382;-73
2023/12/23 03:58:07;;;;;;;;;0.00;0.00;;;;;20.62;47.11;101733.13;4937964;28;45440;-73
2023/12/23 04:00:33;;;;;;;;;0.00;0.00;;;;;20.62;46.90;101738.44;4937882;28;45493;-72
2023/12/23 04:02:58;;;;;;;;;1.00;0.00;;;;;20.55;46.93;101727.63;4937963;28;45303;-73
2023/12/23 04:05:23;;;;;;;;;0.00;0.00;;;;;20.63;47.14;101726.88;4937620;28;45466;-73
2023/12/23 04:07:50;;;;;;;;;0.00;0.00;;;;;20.61;46.83;101740.22;4937847;28;47032;-73
2023/12/23 04:10:16;;;;;;;;;0.00;0.00;;;;;20.60;46.79;101724.53;4937913;28;45307;-73
2023/12/23 04:12:41;;;;;;;;;0.00;0.00;;;;;20.53;46.62;101718.19;4937723;28;45395;-73
2023/12/23 04:15:07;;;;;;;;;0.00;0.00;;;;;20.61;46.87;101739.41;4937311;28;61429;-73
2023/12/23 04:17:33;;;;;;;;;0.00;0.00;;;;;20.59;46.64;101734.28;4937599;28;47077;-73
2023/12/23 04:19:58;;;;;;;;;0.00;0.00;;;;;20.59;46.82;101736.91;4937173;28;45430;-73
2023/12/23 04:22:24;;;;;;;;;0.00;0.00;;;;;20.53;46.88;101721.66;4937456;28;53842;-73
2023/12/23 04:24:49;;;;;;;;;0.00;0.00;;;;;20.60;46.87;101729.81;4937404;28;51273;-73
2023/12/23 04:27:14;;;;;;;;;0.00;0.00;;;;;20.60;46.87;101730.66;4937632;28;46265;-73
2023/12/23 04:29:39;;;;;;;;;2.00;0.33;;;;;20.61;46.96;101731.47;4937600;28;45331;-72
2023/12/23 04:32:05;;;;;;;;;0.00;0.00;;;;;20.58;46.85;101726.50;4937268;28;52603;-73
2023/12/23 04:34:31;;;;;;;;;0.00;0.00;;;;;20.61;47.08;101736.75;4937351;28;45367;-73
2023/12/23 04:36:56;;;;;;;;;0.00;0.00;;;;;20.61;47.08;101715.59;4937309;28;46117;-73
2023/12/23 04:39:21;;;;;;;;;2.00;0.00;;;;;20.61;46.99;101719.09;4937382;28;45361;-73
2023/12/23 04:41:48;;;;;;;;;0.00;0.00;;;;;20.62;47.09;101718.13;4937390;28;47132;-72
2023/12/23 04:44:14;;;;;;;;;0.00;0.00;;;;;20.62;46.86;101714.63;4937669;28;45329;-73
2023/12/23 04:46:41;;;;;;;;;0.00;0.00;;;;;20.63;46.71;101716.31;4938227;28;46117;-73
2023/12/23 04:49:06;;;;;;;;;1.00;1.00;;;;;20.57;46.98;101716.91;4940357;28;45369;-73
2023/12/23 04:51:32;;;;;;;;;1.00;0.00;;;;;20.62;46.96;101715.47;4940958;28;45413;-73
2023/12/23 04:53:57;;;;;;;;;0.00;0.00;;;;;20.63;46.78;101718.94;4940843;28;45366;-73
2023/12/23 04:56:23;;;;;;;;;0.00;0.00;;;;;20.61;47.01;101727.00;4940662;28;46335;-73
2023/12/23 04:58:48;;;;;;;;;0.00;0.00;;;;;20.62;46.97;101722.56;4940653;28;45433;-73
2023/12/23 05:01:13;;;;;;;;;0.00;0.00;;;;;20.57;46.73;101716.91;4940304;28;49818;-73
2023/12/23 05:03:39;;;;;;;;;0.00;0.00;;;;;20.63;46.80;101724.25;4940335;28;45292;-73
2023/12/23 05:06:05;;;;;;;;;0.33;0.00;;;;;20.60;47.14;101721.88;4940387;28;46174;-73
2023/12/23 05:08:32;;;;;;;;;0.00;0.00;;;;;20.58;47.13;101715.94;4940429;28;45387;-73
2023/12/23 05:10:57;;;;;;;;;1.00;0.00;;;;;20.61;46.70;101720.88;4940599;28;45328;-73
2023/12/23 05:13:23;;;;;;;;;0.33;0.00;;;;;20.61;47.15;101724.38;4940317;28;45308;-73
2023/12/23 05:15:48;;;;;;;;;0.00;0.00;;;;;20.56;46.76;101734.56;4940475;28;45427;-73
2023/12/23 05:18:14;;;;;;;;;0.00;0.00;;;;;20.61;46.87;101742.03;4939902;28;45355;-73
2023/12/23 05:20:39;;;;;;;;;0.00;0.00;;;;;20.60;47.14;101743.03;4940623;28;45295;-73
2023/12/23 05:23:05;;;;;;;;;0.00;0.00;;;;;20.60;46.90;101740.41;4940137;28;48981;-72
2023/12/23 05:25:31;;;;;;;;;0.00;0.00;;;;;20.60;47.06;101738.59;4940184;28;46987;-73
2023/12/23 05:27:56;;;;;;;;;0.00;0.00;;;;;20.60;46.58;101728.00;4940051;28;45323;-73
2023/12/23 05:30:21;;;;;;;;;0.00;0.00;;;;;20.62;46.95;101741.06;4940296;28;45449;-73
2023/12/23 05:32:47;;;;;;;;;0.00;0.00;;;;;20.60;46.91;101733.31;4939897;28;45348;-73
2023/12/23 05:35:12;;;;;;;;;0.00;0.00;;;;;20.54;46.72;101731.25;4940064;28;47144;-73
2023/12/23 05:37:37;;;;;;;;;0.00;0.00;;;;;20.56;46.49;101739.84;4954900;28;45273;-73
2023/12/23 05:40:04;;;;;;;;;1.33;0.00;;;;;20.62;46.77;101754.28;4940216;28;45321;-73
2023/12/23 05:42:30;;;;;;;;;0.00;0.00;;;;;20.61;46.80;101742.88;4940164;28;45406;-72
2023/12/23 05:44:55;;;;;;;;;0.00;0.00;;;;;20.61;46.70;101750.81;4939355;28;59636;-72
2023/12/23 05:47:20;;;;;;;;;0.00;0.00;;;;;20.61;46.92;101747.34;4939558;28;45351;-73
2023/12/23 05:49:46;;;;;;;;;0.00;0.00;;;;;20.60;46.76;101738.59;4940065;28;45371;-72
2023/12/23 05:52:11;;;;;;;;;0.00;0.00;;;;;20.60;46.96;101733.31;4939804;28;47160;-73
2023/12/23 05:54:36;;;;;;;;;0.67;0.67;;;;;20.61;46.72;101740.22;4939660;28;46936;-73
2023/12/23 05:57:02;;;;;;;;;1.00;0.00;;;;;20.62;46.63;101735.78;4939600;28;45651;-73
2023/12/23 05:59:27;;;;;;;;;0.00;0.00;;;;;20.61;46.88;101727.00;4938530;28;45299;-73
2023/12/23 06:01:52;;;;;;;;;0.00;0.00;;;;;20.61;46.55;101727.00;4938955;28;49755;-73
2023/12/23 06:04:18;;;;;;;;;0.00;0.00;;;;;20.62;46.92;101733.13;4939306;28;56068;-72
2023/12/23 06:06:43;;;;;;;;;0.00;0.00;;;;;20.61;46.95;101720.88;4939691;28;45422;-72
2023/12/23 06:09:09;;;;;;;;;0.00;0.00;;;;;20.58;47.18;101706.16;4939698;28;45270;-73
2023/12/23 06:11:35;;;;;;;;;0.00;0.00;;;;;20.31;46.73;101664.75;4939783;28;45259;-73
2023/12/23 06:14:00;;;;;;;;;0.00;0.00;;;;;20.52;46.83;101693.56;4939377;28;46986;-72
2023/12/23 06:16:25;;;;;;;;;1.00;0.00;;;;;20.60;46.82;101698.09;4939049;28;45350;-72
2023/12/23 06:18:50;;;;;;;;;0.00;0.00;;;;;20.60;47.02;101698.09;4939701;28;45370;-72
2023/12/23 06:21:16;;;;;;;;;0.00;0.00;;;;;20.56;46.82;101689.63;4939493;28;45332;-73
2023/12/23 06:23:41;;;;;;;;;0.00;0.00;;;;;20.60;46.83;101701.56;4939026;28;58199;-73
2023/12/23 06:26:06;;;;;;;;;3.00;0.00;;;;;20.55;46.96;101682.69;4939142;28;50663;-73
2023/12/23 06:28:32;;;;;;;;;0.00;0.00;;;;;20.60;46.67;101698.94;4939221;28;48402;-73
2023/12/23 06:30:57;;;;;;;;;0.67;0.00;;;;;20.62;47.22;101704.06;4954015;28;45359;-73
2023/12/23 06:33:22;;;;;;;;;0.00;0.00;;;;;20.62;46.88;101696.13;4939134;28;46080;-72
2023/12/23 06:35:47;;;;;;;;;0.00;0.00;;;;;20.62;46.71;101706.69;4938915;28;53962;-73
2023/12/23 06:38:15;;;;;;;;;2.00;0.67;;;;;20.63;47.05;101719.75;4939204;28;45784;-73
2023/12/23 06:40:41;;;;;;;;;0.00;0.00;;;;;20.63;46.92;101721.59;4939187;28;45413;-73
2023/12/23 06:43:06;;;;;;;;;0.00;0.00;;;;;20.62;46.85;101710.19;4939096;28;45342;-73
2023/12/23 06:45:31;;;;;;;;;0.00;0.00;;;;;20.61;46.87;101713.78;4938749;28;45366;-73
2023/12/23 06:47:56;;;;;;;;;0.00;0.00;;;;;20.62;46.90;101710.19;4939000;28;45394;-72
2023/12/23 06:50:22;;;;;;;;;0.00;0.00;;;;;20.61;47.06;101711.16;4939122;28;45366;-72
2023/12/23 06:52:47;;;;;;;;;0.00;0.00;;;;;20.54;46.54;101707.44;4938948;28;46182;-72
2023/12/23 06:55:12;;;;;;;;;0.33;0.00;;;;;20.56;46.77;101716.06;4938715;28;47628;-73
2023/12/23 06:57:39;;;;;;;;;0.00;0.00;;;;;20.62;47.05;101731.34;4938728;28;53761;-72
2023/12/23 07:00:06;;;;;;;;;0.00;0.00;;;;;20.62;46.74;101727.84;4938486;28;45442;-73
2023/12/23 07:02:31;;;;;;;;;0.00;0.00;;;;;20.61;46.95;101724.38;4938375;28;47585;-72
2023/12/23 07:04:57;;;;;;;;;0.00;0.00;;;;;20.57;46.79;101716.91;4938457;28;51875;-72
2023/12/23 07:07:22;;;;;;;;;1.00;0.00;;;;;20.60;46.95;101719.25;4938524;28;45267;-73
2023/12/23 07:09:47;;;;;;;;;0.00;0.00;;;;;20.56;46.74;101718.69;4938429;28;45351;-73
2023/12/23 07:12:13;;;;;;;;;0.00;0.00;;;;;20.60;46.56;101714.78;4938636;28;45311;-72
2023/12/23 07:14:38;;;;;;;;;2.33;0.00;;;;;20.60;46.70;101711.31;4938208;28;45280;-73
2023/12/23 07:17:03;;;;;;;;;0.00;0.00;;;;;20.61;46.72;101718.25;4938753;28;45411;-72
2023/12/23 07:19:29;;;;;;;;;0.00;0.00;;;;;20.57;46.75;101707.16;4938224;28;55381;-72
2023/12/23 07:21:54;;;;;;;;;0.00;0.00;;;;;20.59;46.60;101702.53;4938459;28;47231;-72
2023/12/23 07:24:20;;;;;;;;;0.00;0.00;;;;;20.58;47.05;101708.00;4938603;28;45379;-73
2023/12/23 07:26:45;;;;;;;;;0.00;0.00;;;;;20.58;46.98;101692.94;4938474;28;45383;-73
2023/12/23 07:29:11;;;;;;;;;0.00;0.00;;;;;20.59;46.93;101691.13;4953126;28;45507;-73
2023/12/23 07:31:36;;;;;;;;;0.00;0.00;;;;;20.59;46.75;101684.03;4938398;28;45889;-72
2023/12/23 07:34:02;;;;;;;;;0.00;0.00;;;;;20.60;46.96;101700.72;4938200;28;45323;-73
2023/12/23 07:36:28;;;;;;;;;0.00;0.00;;;;;20.60;46.90;101703.38;4938483;28;45434;-72
2023/12/23 07:38:53;;;;;;;;;0.00;0.00;;;;;20.60;46.70;101724.53;4952949;28;45487;-72
2023/12/23 07:41:18;;;;;;;;;0.00;0.00;;;;;20.60;47.00;101704.22;4938098;28;46181;-72
2023/12/23 07:43:44;;;;;;;;;0.00;0.00;;;;;20.62;46.93;101714.63;4937902;28;45404;-72
2023/12/23 07:46:09;;;;;;;;;1.00;0.00;;;;;20.61;46.74;101716.44;4938335;28;45284;-72
2023/12/23 07:48:34;;;;;;;;;0.00;0.00;;;;;20.60;46.76;101728.00;4938272;28;45551;-73
2023/12/23 07:51:06;;;;;;;;;0.00;0.00;;;;;20.58;46.67;101713.28;4938044;28;45787;-72
2023/12/23 07:53:32;;;;;;;;;0.00;0.00;;;;;20.56;46.64;101715.22;4937967;28;45414;-72
2023/12/23 07:55:57;;;;;;;;;0.00;0.00;;;;;20.62;46.74;101722.56;4938114;28;45313;-73
2023/12/23 07:58:22;;;;;;;;;0.00;0.00;;;;;20.62;46.90;101731.34;4937688;28;45416;-73
2023/12/23 08:00:48;;;;;;;;;0.00;0.00;;;;;20.63;46.85;101734.81;4937212;28;60430;-72
2023/12/23 08:03:13;;;;;;;;;0.00;0.00;;;;;20.61;46.73;101740.22;4952601;28;45366;-72
2023/12/23 08:05:38;;;;;;;;;0.00;0.00;;;;;20.59;46.48;101722.84;4937877;28;45736;-73
2023/12/23 08:08:04;;;;;;;;;1.00;0.00;;;;;20.54;46.59;101709.25;4952823;28;45431;-72
2023/12/23 08:10:30;;;;;;;;;0.00;0.00;;;;;20.60;46.86;101735.09;4937779;28;45276;-73
2023/12/23 08:12:55;;;;;;;;;1.00;0.00;;;;;20.61;46.96;101744.69;4936128;28;45438;-72
2023/12/23 08:15:20;;;;;;;;;0.00;0.00;;;;;20.61;46.60;101736.75;4937893;28;45375;-73
2023/12/23 08:17:46;;;;;;;;;0.00;0.00;;;;;20.61;46.58;101742.03;4937758;28;45409;-72
2023/12/23 08:20:11;;;;;;;;;0.00;0.00;;;;;20.60;46.66;101750.97;4937700;28;45306;-73
2023/12/23 08:22:36;;;;;;;;;0.00;0.00;;;;;20.60;46.86;101730.66;4936792;28;45324;-73
2023/12/23 08:25:02;;;;;;;;;0.00;0.00;;;;;20.60;46.76;101743.88;4937328;28;51160;-73
2023/12/23 08:27:27;;;;;;;;;2.00;0.00;;;;;20.59;46.73;101750.13;4937344;28;45328;-72
2023/12/23 08:29:53;;;;;;;;;0.00;0.00;;;;;20.59;46.44;101747.50;4937512;28;46975;-72
2023/12/23 08:32:18;;;;;;;;;0.00;0.00;;;;;20.60;46.51;101761.56;4937588;28;45272;-73
2023/12/23 08:34:46;;;;;;;;;0.00;0.00;;;;;20.61;47.03;101756.09;4937670;28;45267;-74
2023/12/23 08:37:12;;;;;;;;;0.00;0.00;;;;;20.57;46.77;101732.75;4937557;28;45286;-73
2023/12/23 08:39:37;;;;;;;;;0.00;0.00;;;;;20.61;46.73;101760.56;4937309;28;45828;-72
2023/12/23 08:42:03;;;;;;;;;0.00;0.00;;;;;20.62;46.47;101764.88;4937215;28;45375;-72
2023/12/23 08:44:28;;;;;;;;;0.33;0.00;;;;;20.62;46.95;101762.22;4937659;28;45337;-72
2023/12/23 08:46:53;;;;;;;;;0.00;0.00;;;;;20.61;46.48;101771.97;4937547;28;45351;-72
2023/12/23 08:49:18;;;;;;;;;0.00;0.00;;;;;20.61;46.62;101771.97;4937418;28;46031;-72
2023/12/23 08:51:44;;;;;;;;;0.00;0.00;;;;;20.61;46.61;101779.91;4937356;28;45390;-73
2023/12/23 08:54:09;;;;;;;;;2.00;0.00;;;;;20.55;46.80;101769.94;4937394;28;45315;-73
2023/12/23 08:56:34;;;;;;;;;0.00;0.00;;;;;20.61;46.82;101774.59;4936373;28;59675;-72
2023/12/23 08:59:00;;;;;;;;;0.00;0.00;;;;;20.62;46.62;101770.16;4937383;28;45934;-72
2023/12/23 09:01:25;;;;;;;;;0.00;0.00;;;;;20.60;46.70;101769.47;4936348;28;58610;-73
2023/12/23 09:03:50;;;;;;;;;2.00;0.00;;;;;20.56;46.72;101746.94;4937217;28;45421;-72
2023/12/23 09:06:17;;;;;;;;;1.00;0.00;;;;;20.53;46.79;101749.91;4936864;28;54060;-73
2023/12/23 09:08:42;;;;;;;;;0.00;0.00;;;;;20.59;46.39;101755.41;4936994;28;46137;-72
2023/12/23 09:11:08;;;;;;;;;1.00;0.00;;;;;20.60;46.48;101759.75;4936797;28;45383;-72
2023/12/23 09:13:33;;;;;;;;;0.00;0.00;;;;;20.62;46.58;101763.06;4952050;28;45370;-73
2023/12/23 09:16:03;;;;;;;;;0.00;0.00;;;;;20.62;46.33;101754.28;4937145;28;45424;-73
2023/12/23 09:18:28;;;;;;;;;0.00;0.00;;;;;20.61;46.56;101753.44;4936911;28;46274;-72
2023/12/23 09:20:53;;;;;;;;;1.00;0.00;;;;;20.59;46.53;101746.66;4936857;28;45479;-72
2023/12/23 09:23:19;;;;;;;;;0.00;0.00;;;;;20.60;46.52;101756.25;4936858;28;48520;-72
2023/12/23 09:25:44;;;;;;;;;0.00;0.00;;;;;20.55;46.52;101747.94;4936763;28;45385;-73
2023/12/23 09:28:09;;;;;;;;;0.67;0.67;;;;;20.60;46.79;101764.19;4936784;28;47081;-72
2023/12/23 09:30:35;;;;;;;;;1.00;0.00;;;;;20.62;46.79;101760.41;4936806;28;45398;-73
2023/12/23 09:33:00;;;;;;;;;0.67;0.00;;;;;20.60;46.70;101757.09;4938462;28;45430;-73
2023/12/23 09:35:25;;;;;;;;;1.00;0.00;;;;;20.61;46.71;101761.38;4940181;28;45295;-72
2023/12/23 09:37:50;;;;;;;;;0.00;0.00;;;;;20.60;46.80;101758.91;4939952;28;49994;-72
2023/12/23 09:40:16;;;;;;;;;1.00;1.00;;;;;20.61;46.81;101752.63;4939580;28;46241;-73
2023/12/23 09:42:42;;;;;;;;;0.67;0.00;;;;;20.51;46.93;101740.31;4940081;28;45301;-72
2023/12/23 09:45:08;;;;;;;;;0.00;0.00;;;;;20.54;46.55;101739.16;4940276;28;45351;-72
2023/12/23 09:47:33;;;;;;;;;0.33;0.33;;;;;20.56;46.73;101755.72;4939657;28;45935;-72
2023/12/23 09:49:59;;;;;;;;;0.00;0.00;;;;;20.59;46.68;101752.78;4939862;28;45312;-73
2023/12/23 09:52:24;;;;;;;;;2.00;0.00;;;;;20.54;46.88;101748.91;4939959;28;45289;-72
2023/12/23 09:54:57;;;;;;;;;0.00;0.00;;;;;20.62;46.99;101762.22;4939513;28;45228;-73
2023/12/23 09:57:22;;;;;;;;;0.00;0.00;;;;;20.62;46.58;101757.78;4939228;28;46379;-71
2023/12/23 09:59:50;;;;;;;;;0.67;0.00;;;;;20.63;46.84;101769.19;4938940;28;45717;-72
2023/12/23 10:02:15;;;;;;;;;0.00;0.00;;;;;20.53;46.73;101753.38;4938754;28;45311;-72
2023/12/23 10:04:40;;;;;;;;;0.00;0.00;;;;;20.62;47.15;101770.16;4934606;28;45429;-71
2023/12/23 10:07:06;;;;;;;;;1.00;0.00;;;;;20.66;46.92;101782.09;4934426;28;45395;-72
2023/12/23 10:09:33;;;;;;;;;0.00;0.00;;;;;20.67;47.43;101772.34;4938350;28;45437;-72
2023/12/23 10:12:01;;;;;;;;;0.00;0.00;;;;;20.63;47.34;101756.78;4936126;28;45377;-71
2023/12/23 10:14:26;;;;;;;;;0.00;0.00;;;;;20.68;47.30;101766.09;4946173;28;45310;-72
2023/12/23 10:16:53;;;;;;;;;0.00;0.00;;;;;20.68;47.40;101763.44;4946836;28;46413;-71
2023/12/23 10:19:18;;;;;;;;;0.00;0.00;;;;;20.70;47.24;101762.31;4946818;28;45435;-71
2023/12/23 10:21:43;;;;;;;;;0.00;0.00;;;;;20.70;47.27;101759.69;4952803;28;45389;-71
2023/12/23 10:24:09;;;;;;;;;0.00;0.00;;;;;20.73;47.43;101755.91;4956354;28;45296;-72
2023/12/23 10:26:34;;;;;;;;;0.00;0.00;;;;;20.71;47.76;101761.31;4943845;28;46589;-75
2023/12/23 10:29:03;;;;;;;;;0.00;0.00;;;;;20.60;47.70;101749.16;4940187;28;45522;-75
2023/12/23 10:31:32;;;;;;;;;2.00;1.00;;;;;20.58;47.93;101750.28;4940165;28;45423;-73
2023/12/23 10:34:02;;;;;;;;;0.67;0.00;;;;;20.51;48.27;101747.38;4939178;28;45356;-72
2023/12/23 10:36:27;;;;;;;;;0.00;0.00;;;;;20.51;48.31;101745.59;4938577;28;46480;-73
2023/12/23 10:39:02;;;;;;;;;0.00;0.00;;;;;20.55;48.42;101759.34;4938613;28;50645;-72
2023/12/23 10:41:48;;;;;;;;;0.00;0.00;;;;;20.48;48.33;101751.16;4939184;28;45457;-73
2023/12/23 10:44:14;;;;;;;;;0.00;0.00;;;;;20.54;48.21;101749.75;4940332;28;45449;-74
2023/12/23 10:46:42;;;;;;;;;0.00;0.00;;;;;20.50;47.75;101748.38;4948533;28;47449;-73
2023/12/23 10:49:10;;;;;;;;;0.00;0.00;;;;;20.49;48.34;101731.69;4942775;28;45462;-72
2023/12/23 10:51:37;;;;;;;;;0.00;0.00;;;;;20.57;48.22;101744.16;4950463;28;45410;-73
2023/12/23 10:54:03;;;;;;;;;1.00;0.00;;;;;20.58;47.95;101745.81;4952214;28;45337;-73
2023/12/23 10:56:29;;;;;;;;;0.33;0.00;;;;;20.59;48.27;101746.66;4937250;28;46365;-73
2023/12/23 10:58:55;;;;;;;;;1.00;0.00;;;;;20.50;48.47;101712.22;4938066;28;45387;-72
2023/12/23 11:01:24;;;;;;;;;0.00;0.00;;;;;20.62;48.41;101725.22;4937764;28;45560;-73
2023/12/23 11:03:54;;;;;;;;;0.00;0.00;;;;;20.64;48.63;101741.75;4933493;28;45582;-72
2023/12/23 11:06:21;;;;;;;;;0.00;0.00;;;;;20.57;48.43;101720.38;4935817;28;46331;-73
2023/12/23 11:08:49;;;;;;;;;0.00;0.00;;;;;20.60;48.49;101712.16;4938408;28;45371;-72
2023/12/23 11:11:16;;;;;;;;;0.00;0.00;;;;;20.67;48.44;101715.00;4938678;28;45302;-73
2023/12/23 11:13:41;;;;;;;;;0.00;0.00;;;;;20.58;48.44;101702.69;4945565;28;45621;-76
2023/12/23 11:16:10;;;;;;;;;0.00;0.00;;;;;20.61;48.16;101700.56;4947995;28;45545;-75
2023/12/23 11:18:37;;;;;;;;;1.00;0.33;;;;;20.61;48.21;101694.44;4947802;28;45371;-74